createdAt,value
2018-07-05T00:00:12.464Z,0
2018-07-05T00:01:14.600Z,0
2018-07-05T00:02:17.311Z,0
2018-07-05T00:03:19.374Z,0
2018-07-05T00:04:21.608Z,0
2018-07-05T00:05:23.763Z,0
2018-07-05T00:06:27.381Z,0
2018-07-05T00:07:29.596Z,0
2018-07-05T00:08:32.098Z,0
2018-07-05T00:09:34.246Z,0
2018-07-05T00:10:36.898Z,0
2018-07-05T00:11:39.374Z,0
2018-07-05T00:12:42.065Z,0
2018-07-05T00:13:44.467Z,0
2018-07-05T00:14:46.824Z,0
2018-07-05T00:15:48.948Z,0
2018-07-05T00:16:52.066Z,0
2018-07-05T00:17:54.221Z,0
2018-07-05T00:18:56.289Z,0
2018-07-05T00:19:58.466Z,0
2018-07-05T00:21:01.001Z,0
2018-07-05T00:22:03.410Z,0
2018-07-05T00:23:05.579Z,0
2018-07-05T00:24:08.301Z,0
2018-07-05T00:25:10.904Z,0
2018-07-05T00:26:14.357Z,0
2018-07-05T00:27:16.820Z,0
2018-07-05T00:28:19.094Z,0
2018-07-05T00:29:21.727Z,0
2018-07-05T00:30:23.856Z,0
2018-07-05T00:31:25.910Z,0
2018-07-05T00:32:28.015Z,0
2018-07-05T00:33:30.314Z,0
2018-07-05T00:34:32.500Z,0
2018-07-05T00:35:36.905Z,0
2018-07-05T00:36:39.159Z,0
2018-07-05T00:37:41.549Z,0
2018-07-05T00:38:43.667Z,0
2018-07-05T00:39:45.771Z,0
2018-07-05T00:40:47.961Z,0
2018-07-05T00:41:50.481Z,0
2018-07-05T00:42:52.605Z,0
2018-07-05T00:43:54.751Z,0
2018-07-05T00:44:57.645Z,0
2018-07-05T00:45:59.899Z,0
2018-07-05T00:47:03.271Z,0
2018-07-05T00:48:05.463Z,0
2018-07-05T00:49:09.348Z,0
2018-07-05T00:50:11.383Z,0
2018-07-05T00:51:13.499Z,0
2018-07-05T00:52:16.192Z,0
2018-07-05T00:53:18.964Z,0
2018-07-05T00:54:21.070Z,0
2018-07-05T00:55:23.412Z,0
2018-07-05T00:56:25.507Z,0
2018-07-05T00:57:27.565Z,0
2018-07-05T00:58:29.703Z,0
2018-07-05T00:59:31.834Z,0
2018-07-05T01:00:33.884Z,0
2018-07-05T01:01:36.246Z,0
2018-07-05T01:02:38.301Z,0
2018-07-05T01:03:40.754Z,0
2018-07-05T01:04:42.850Z,0
2018-07-05T01:05:44.924Z,0
2018-07-05T01:06:47.059Z,0
2018-07-05T01:07:49.102Z,0
2018-07-05T01:08:51.148Z,0
2018-07-05T01:09:53.377Z,0
2018-07-05T01:10:56.322Z,0
2018-07-05T01:11:59.028Z,0
2018-07-05T01:13:01.825Z,0
2018-07-05T01:14:04.911Z,0
2018-07-05T01:15:07.573Z,0
2018-07-05T01:16:10.327Z,0
2018-07-05T01:17:12.964Z,0
2018-07-05T01:18:16.297Z,0
2018-07-05T01:19:19.107Z,0
2018-07-05T01:20:22.171Z,0
2018-07-05T01:21:24.859Z,0
2018-07-05T01:22:27.658Z,0
2018-07-05T01:23:32.400Z,0
2018-07-05T01:24:35.414Z,0
2018-07-05T01:25:40.262Z,0
2018-07-05T01:26:43.239Z,0
2018-07-05T01:27:48.136Z,0
2018-07-05T01:28:51.360Z,0
2018-07-05T01:29:54.867Z,0
2018-07-05T01:30:58.769Z,0
2018-07-05T01:32:03.887Z,0
2018-07-05T01:33:07.791Z,0
2018-07-05T01:34:12.239Z,0
2018-07-05T01:35:15.524Z,0
2018-07-05T01:36:18.905Z,0
2018-07-05T01:37:23.246Z,0
2018-07-05T01:38:25.979Z,0
2018-07-05T01:39:29.990Z,0
2018-07-05T01:40:32.774Z,0
2018-07-05T01:41:35.744Z,0
2018-07-05T01:42:38.556Z,0
2018-07-05T01:43:41.294Z,0
2018-07-05T01:44:43.737Z,0
2018-07-05T01:45:46.316Z,0
2018-07-05T01:46:49.191Z,0
2018-07-05T01:47:52.324Z,0
2018-07-05T01:48:55.384Z,0
2018-07-05T01:49:58.290Z,0
2018-07-05T01:51:00.999Z,0
2018-07-05T01:52:04.069Z,0
2018-07-05T01:53:06.748Z,0
2018-07-05T01:54:09.235Z,0
2018-07-05T01:55:11.962Z,0
2018-07-05T01:56:14.003Z,0
2018-07-05T01:57:16.044Z,0
2018-07-05T01:58:18.098Z,0
2018-07-05T01:59:20.130Z,0
2018-07-05T02:00:22.289Z,0
2018-07-05T02:01:25.023Z,4
2018-07-05T02:02:27.057Z,4
2018-07-05T02:03:29.103Z,0
2018-07-05T02:04:31.143Z,0
2018-07-05T02:05:33.189Z,0
2018-07-05T02:06:35.223Z,4
2018-07-05T02:07:37.263Z,4
2018-07-05T02:08:39.314Z,4
2018-07-05T02:09:41.352Z,4
2018-07-05T02:10:43.387Z,4
2018-07-05T02:11:46.111Z,8
2018-07-05T02:12:50.601Z,4
2018-07-05T02:13:55.519Z,8
2018-07-05T02:14:57.553Z,8
2018-07-05T02:15:59.648Z,8
2018-07-05T02:17:02.077Z,12
2018-07-05T02:18:04.129Z,12
2018-07-05T02:19:06.176Z,12
2018-07-05T02:20:08.490Z,12
2018-07-05T02:21:10.532Z,16
2018-07-05T02:22:12.571Z,16
2018-07-05T02:23:14.615Z,20
2018-07-05T02:24:17.045Z,20
2018-07-05T02:25:19.115Z,24
2018-07-05T02:26:21.197Z,24
2018-07-05T02:27:23.517Z,32
2018-07-05T02:28:25.558Z,32
2018-07-05T02:29:27.606Z,32
2018-07-05T02:30:29.937Z,36
2018-07-05T02:31:32.544Z,40
2018-07-05T02:32:34.598Z,44
2018-07-05T02:33:36.634Z,48
2018-07-05T02:34:38.959Z,56
2018-07-05T02:35:41.317Z,60
2018-07-05T02:36:43.649Z,68
2018-07-05T02:37:45.693Z,68
2018-07-05T02:38:47.735Z,76
2018-07-05T02:39:49.766Z,80
2018-07-05T02:40:52.207Z,88
2018-07-05T02:41:54.237Z,92
2018-07-05T02:42:56.320Z,96
2018-07-05T02:43:58.352Z,104
2018-07-05T02:45:00.674Z,108
2018-07-05T02:46:02.705Z,120
2018-07-05T02:47:05.127Z,128
2018-07-05T02:48:07.463Z,136
2018-07-05T02:49:09.522Z,140
2018-07-05T02:50:11.644Z,152
2018-07-05T02:51:14.072Z,168
2018-07-05T02:52:16.777Z,176
2018-07-05T02:53:18.841Z,188
2018-07-05T02:54:21.347Z,200
2018-07-05T02:55:26.482Z,212
2018-07-05T02:56:28.527Z,224
2018-07-05T02:57:30.611Z,244
2018-07-05T02:58:32.660Z,256
2018-07-05T02:59:35.210Z,276
2018-07-05T03:00:38.642Z,292
2018-07-05T03:01:40.976Z,304
2018-07-05T03:02:43.297Z,320
2018-07-05T03:03:45.425Z,332
2018-07-05T03:04:48.585Z,344
2018-07-05T03:05:52.320Z,364
2018-07-05T03:06:56.541Z,384
2018-07-05T03:07:59.153Z,400
2018-07-05T03:09:01.876Z,424
2018-07-05T03:10:03.917Z,448
2018-07-05T03:11:06.344Z,472
2018-07-05T03:12:08.384Z,496
2018-07-05T03:13:10.828Z,520
2018-07-05T03:14:13.146Z,536
2018-07-05T03:15:15.186Z,556
2018-07-05T03:16:17.219Z,584
2018-07-05T03:17:19.545Z,596
2018-07-05T03:18:21.881Z,620
2018-07-05T03:19:24.241Z,648
2018-07-05T03:20:26.591Z,692
2018-07-05T03:21:28.645Z,724
2018-07-05T03:22:30.829Z,752
2018-07-05T03:23:33.170Z,772
2018-07-05T03:24:35.209Z,784
2018-07-05T03:25:37.826Z,808
2018-07-05T03:26:40.185Z,840
2018-07-05T03:27:43.228Z,860
2018-07-05T03:28:45.260Z,876
2018-07-05T03:29:47.345Z,884
2018-07-05T03:30:49.450Z,908
2018-07-05T03:31:52.200Z,936
2018-07-05T03:32:54.838Z,956
2018-07-05T03:33:56.892Z,984
2018-07-05T03:34:58.925Z,1020
2018-07-05T03:36:00.966Z,1076
2018-07-05T03:37:03.002Z,1116
2018-07-05T03:38:05.321Z,1172
2018-07-05T03:39:07.362Z,1204
2018-07-05T03:40:09.739Z,1264
2018-07-05T03:41:14.281Z,1296
2018-07-05T03:42:16.609Z,1304
2018-07-05T03:43:18.648Z,1332
2018-07-05T03:44:20.871Z,1392
2018-07-05T03:45:22.921Z,1476
2018-07-05T03:46:24.961Z,1548
2018-07-05T03:47:27.273Z,1580
2018-07-05T03:48:29.331Z,1612
2018-07-05T03:49:31.388Z,1708
2018-07-05T03:50:33.812Z,1804
2018-07-05T03:51:35.888Z,1852
2018-07-05T03:52:38.337Z,1852
2018-07-05T03:53:40.378Z,1856
2018-07-05T03:54:42.427Z,1880
2018-07-05T03:55:44.468Z,1904
2018-07-05T03:56:46.519Z,1944
2018-07-05T03:57:48.552Z,1988
2018-07-05T03:58:50.591Z,2056
2018-07-05T03:59:52.646Z,2168
2018-07-05T04:00:54.682Z,2236
2018-07-05T04:01:56.734Z,2216
2018-07-05T04:02:58.775Z,2144
2018-07-05T04:04:00.818Z,2184
2018-07-05T04:05:02.856Z,2324
2018-07-05T04:06:04.890Z,2532
2018-07-05T04:07:06.945Z,2772
2018-07-05T04:08:09.657Z,2940
2018-07-05T04:09:11.701Z,2936
2018-07-05T04:10:13.749Z,2904
2018-07-05T04:11:15.790Z,2864
2018-07-05T04:12:18.131Z,2856
2018-07-05T04:13:21.848Z,2896
2018-07-05T04:14:24.593Z,2924
2018-07-05T04:15:26.652Z,2984
2018-07-05T04:16:28.686Z,2980
2018-07-05T04:17:30.727Z,2904
2018-07-05T04:18:32.762Z,2920
2018-07-05T04:19:34.803Z,3012
2018-07-05T04:20:36.852Z,3132
2018-07-05T04:21:38.887Z,3176
2018-07-05T04:22:40.929Z,3136
2018-07-05T04:23:43.372Z,3128
2018-07-05T04:24:45.403Z,3164
2018-07-05T04:25:47.451Z,3188
2018-07-05T04:26:49.501Z,3268
2018-07-05T04:27:51.839Z,3356
2018-07-05T04:28:53.883Z,3588
2018-07-05T04:29:55.913Z,3708
2018-07-05T04:30:57.965Z,3784
2018-07-05T04:32:00.017Z,3844
2018-07-05T04:33:02.738Z,3996
2018-07-05T04:34:05.206Z,4176
2018-07-05T04:35:07.232Z,4320
2018-07-05T04:36:09.271Z,4332
2018-07-05T04:37:11.921Z,4248
2018-07-05T04:38:14.017Z,4200
2018-07-05T04:39:16.345Z,4280
2018-07-05T04:40:18.748Z,4388
2018-07-05T04:41:22.846Z,4628
2018-07-05T04:42:25.262Z,4852
2018-07-05T04:43:30.677Z,5028
2018-07-05T04:44:33.010Z,5108
2018-07-05T04:45:35.051Z,5036
2018-07-05T04:46:37.087Z,5076
2018-07-05T04:47:39.145Z,5352
2018-07-05T04:48:41.191Z,5604
2018-07-05T04:49:43.229Z,5700
2018-07-05T04:50:45.581Z,5508
2018-07-05T04:51:48.591Z,5332
2018-07-05T04:52:50.913Z,5220
2018-07-05T04:53:52.956Z,5124
2018-07-05T04:54:54.992Z,5148
2018-07-05T04:55:57.036Z,5128
2018-07-05T04:56:59.074Z,5176
2018-07-05T04:58:01.120Z,5228
2018-07-05T04:59:03.158Z,5288
2018-07-05T05:00:05.203Z,5240
2018-07-05T05:01:07.237Z,5192
2018-07-05T05:02:09.274Z,5420
2018-07-05T05:03:11.314Z,5932
2018-07-05T05:04:13.363Z,6196
2018-07-05T05:05:15.692Z,6552
2018-07-05T05:06:17.745Z,6564
2018-07-05T05:07:19.781Z,6172
2018-07-05T05:08:21.925Z,5604
2018-07-05T05:09:24.073Z,5268
2018-07-05T05:10:26.114Z,5380
2018-07-05T05:11:28.164Z,5776
2018-07-05T05:12:30.195Z,6280
2018-07-05T05:13:32.238Z,6508
2018-07-05T05:14:34.280Z,6516
2018-07-05T05:15:36.327Z,6144
2018-07-05T05:16:38.371Z,6172
2018-07-05T05:17:40.411Z,6184
2018-07-05T05:18:42.788Z,5992
2018-07-05T05:19:47.508Z,5848
2018-07-05T05:20:49.552Z,5564
2018-07-05T05:21:51.676Z,5544
2018-07-05T05:22:53.730Z,5728
2018-07-05T05:23:55.849Z,5780
2018-07-05T05:24:58.280Z,5844
2018-07-05T05:26:00.619Z,5904
2018-07-05T05:27:02.688Z,6008
2018-07-05T05:28:05.004Z,6172
2018-07-05T05:29:07.046Z,6244
2018-07-05T05:30:09.380Z,6200
2018-07-05T05:31:11.422Z,6228
2018-07-05T05:32:13.459Z,6404
2018-07-05T05:33:15.825Z,6968
2018-07-05T05:34:18.362Z,7028
2018-07-05T05:35:21.051Z,7112
2018-07-05T05:36:24.395Z,7516
2018-07-05T05:37:26.621Z,7264
2018-07-05T05:38:30.251Z,7232
2018-07-05T05:39:33.464Z,7300
2018-07-05T05:40:36.973Z,7352
2018-07-05T05:41:40.843Z,7196
2018-07-05T05:42:44.330Z,7204
2018-07-05T05:43:47.550Z,6948
2018-07-05T05:44:51.183Z,6812
2018-07-05T05:45:54.965Z,6848
2018-07-05T05:47:00.213Z,6892
2018-07-05T05:48:03.297Z,7128
2018-07-05T05:49:07.447Z,7144
2018-07-05T05:50:10.854Z,6724
2018-07-05T05:51:13.578Z,6920
2018-07-05T05:52:19.025Z,6704
2018-07-05T05:53:24.182Z,7288
2018-07-05T05:54:26.966Z,7760
2018-07-05T05:55:30.220Z,7764
2018-07-05T05:56:34.345Z,7572
2018-07-05T05:57:37.241Z,7788
2018-07-05T05:58:42.425Z,8008
2018-07-05T05:59:45.264Z,7892
2018-07-05T06:00:50.547Z,7628
2018-07-05T06:01:53.513Z,7224
2018-07-05T06:02:59.274Z,7072
2018-07-05T06:04:05.717Z,6880
2018-07-05T06:05:10.693Z,6772
2018-07-05T06:06:13.378Z,6956
2018-07-05T06:07:19.934Z,7180
2018-07-05T06:08:22.826Z,7528
2018-07-05T06:09:25.352Z,7792
2018-07-05T06:10:29.290Z,7688
2018-07-05T06:11:32.144Z,7596
2018-07-05T06:12:35.584Z,7516
2018-07-05T06:13:38.314Z,7628
2018-07-05T06:14:42.321Z,7860
2018-07-05T06:15:45.796Z,7460
2018-07-05T06:16:48.908Z,7084
2018-07-05T06:17:53.275Z,7164
2018-07-05T06:18:56.093Z,7228
2018-07-05T06:19:58.870Z,7188
2018-07-05T06:21:01.223Z,7072
2018-07-05T06:22:03.270Z,6900
2018-07-05T06:23:05.536Z,6836
2018-07-05T06:24:10.045Z,6880
2018-07-05T06:25:14.346Z,6896
2018-07-05T06:26:17.781Z,6892
2018-07-05T06:27:21.263Z,6940
2018-07-05T06:28:25.560Z,7000
2018-07-05T06:29:27.883Z,6972
2018-07-05T06:30:29.931Z,6892
2018-07-05T06:31:32.271Z,6880
2018-07-05T06:32:34.616Z,6912
2018-07-05T06:33:37.317Z,6952
2018-07-05T06:34:41.472Z,6816
2018-07-05T06:35:43.521Z,7044
2018-07-05T06:36:45.583Z,7060
2018-07-05T06:37:48.483Z,7088
2018-07-05T06:38:51.605Z,7056
2018-07-05T06:39:56.914Z,7104
2018-07-05T06:40:59.252Z,7128
2018-07-05T06:42:01.470Z,7184
2018-07-05T06:43:04.741Z,7180
2018-07-05T06:44:07.426Z,7160
2018-07-05T06:45:10.137Z,7128
2018-07-05T06:46:12.231Z,7096
2018-07-05T06:47:14.475Z,7104
2018-07-05T06:48:17.802Z,7120
2018-07-05T06:49:20.775Z,7148
2018-07-05T06:50:23.590Z,7128
2018-07-05T06:51:25.639Z,7064
2018-07-05T06:52:27.703Z,6944
2018-07-05T06:53:29.741Z,6828
2018-07-05T06:54:31.799Z,6692
2018-07-05T06:55:33.842Z,6608
2018-07-05T06:56:35.887Z,6608
2018-07-05T06:57:38.251Z,6596
2018-07-05T06:58:40.681Z,6684
2018-07-05T06:59:42.709Z,6684
2018-07-05T07:00:44.902Z,6748
2018-07-05T07:01:47.725Z,6888
2018-07-05T07:02:51.911Z,6992
2018-07-05T07:03:54.313Z,7096
2018-07-05T07:04:56.357Z,7152
2018-07-05T07:05:58.407Z,7144
2018-07-05T07:07:00.701Z,7080
2018-07-05T07:08:02.929Z,7072
2018-07-05T07:09:04.934Z,7084
2018-07-05T07:10:06.975Z,7052
2018-07-05T07:11:09.038Z,7004
2018-07-05T07:12:11.758Z,7100
2018-07-05T07:13:14.210Z,7136
2018-07-05T07:14:16.665Z,7228
2018-07-05T07:15:19.603Z,7308
2018-07-05T07:16:21.791Z,7348
2018-07-05T07:17:24.160Z,7352
2018-07-05T07:18:26.805Z,7364
2018-07-05T07:19:30.551Z,7352
2018-07-05T07:20:34.353Z,7320
2018-07-05T07:21:36.789Z,7272
2018-07-05T07:22:38.859Z,7252
2018-07-05T07:23:41.524Z,7204
2018-07-05T07:24:44.495Z,7136
2018-07-05T07:25:46.536Z,7072
2018-07-05T07:26:48.636Z,7012
2018-07-05T07:27:51.689Z,6960
2018-07-05T07:28:54.668Z,6944
2018-07-05T07:29:56.793Z,6924
2018-07-05T07:30:59.031Z,6912
2018-07-05T07:32:01.226Z,6928
2018-07-05T07:33:03.221Z,6972
2018-07-05T07:34:05.293Z,7020
2018-07-05T07:35:07.470Z,7056
2018-07-05T07:36:09.519Z,7080
2018-07-05T07:37:11.577Z,7168
2018-07-05T07:38:13.637Z,7232
2018-07-05T07:39:15.805Z,7416
2018-07-05T07:40:18.239Z,7896
2018-07-05T07:41:20.892Z,7912
2018-07-05T07:42:23.834Z,7004
2018-07-05T07:43:26.598Z,7188
2018-07-05T07:44:29.169Z,7100
2018-07-05T07:45:32.401Z,7008
2018-07-05T07:46:35.251Z,6948
2018-07-05T07:47:38.138Z,6932
2018-07-05T07:48:41.157Z,6952
2018-07-05T07:49:44.316Z,6988
2018-07-05T07:50:47.093Z,7000
2018-07-05T07:51:49.746Z,7028
2018-07-05T07:52:53.456Z,7052
2018-07-05T07:53:57.734Z,7032
2018-07-05T07:55:01.812Z,7012
2018-07-05T07:56:05.239Z,6960
2018-07-05T07:57:07.977Z,6928
2018-07-05T07:58:11.608Z,6908
2018-07-05T07:59:14.842Z,6880
2018-07-05T08:00:18.254Z,6864
2018-07-05T08:01:22.203Z,6856
2018-07-05T08:02:24.599Z,6880
2018-07-05T08:03:27.458Z,6884
2018-07-05T08:04:30.069Z,6896
2018-07-05T08:05:33.372Z,6916
2018-07-05T08:06:36.681Z,6932
2018-07-05T08:07:39.316Z,6940
2018-07-05T08:08:42.232Z,6924
2018-07-05T08:09:45.042Z,6884
2018-07-05T08:10:47.896Z,6892
2018-07-05T08:11:50.742Z,6912
2018-07-05T08:12:53.331Z,6948
2018-07-05T08:13:56.557Z,6972
2018-07-05T08:14:59.228Z,7012
2018-07-05T08:16:01.704Z,7044
2018-07-05T08:17:04.745Z,7096
2018-07-05T08:18:07.366Z,7168
2018-07-05T08:19:10.822Z,7212
2018-07-05T08:20:13.830Z,7232
2018-07-05T08:21:16.597Z,7284
2018-07-05T08:22:19.827Z,7352
2018-07-05T08:23:22.552Z,7376
2018-07-05T08:24:26.356Z,7364
2018-07-05T08:25:28.833Z,7368
2018-07-05T08:26:32.877Z,7356
2018-07-05T08:27:35.701Z,7320
2018-07-05T08:28:38.659Z,7284
2018-07-05T08:29:40.826Z,7312
2018-07-05T08:30:43.326Z,7336
2018-07-05T08:31:46.380Z,7380
2018-07-05T08:32:48.916Z,7460
2018-07-05T08:33:51.431Z,7880
2018-07-05T08:34:53.687Z,21216
2018-07-05T08:35:56.785Z,22080
2018-07-05T08:37:00.371Z,19776
2018-07-05T08:38:04.842Z,12784
2018-07-05T08:39:07.839Z,18072
2018-07-05T08:40:10.387Z,22944
2018-07-05T08:41:13.589Z,33312
2018-07-05T08:42:16.613Z,31200
2018-07-05T08:43:19.815Z,31968
2018-07-05T08:44:22.927Z,32736
2018-07-05T08:45:25.882Z,28160
2018-07-05T08:46:29.448Z,34784
2018-07-05T08:47:32.282Z,25984
2018-07-05T08:48:35.612Z,52928
2018-07-05T08:49:37.824Z,92608
2018-07-05T08:50:40.781Z,99008
2018-07-05T08:51:44.008Z,89824
2018-07-05T08:52:46.906Z,85920
2018-07-05T08:53:49.887Z,93984
2018-07-05T08:54:53.150Z,96800
2018-07-05T08:55:55.818Z,95456
2018-07-05T08:56:58.012Z,86176
2018-07-05T08:58:00.291Z,76032
2018-07-05T08:59:03.025Z,82816
2018-07-05T09:00:06.235Z,89760
2018-07-05T09:01:09.786Z,93088
2018-07-05T09:02:14.816Z,94784
2018-07-05T09:03:21.167Z,89312
2018-07-05T09:04:25.047Z,85088
2018-07-05T09:05:28.946Z,85824
2018-07-05T09:06:32.397Z,87872
2018-07-05T09:07:34.929Z,88992
2018-07-05T09:08:38.114Z,94240
2018-07-05T09:09:41.104Z,90208
2018-07-05T09:10:44.233Z,85600
2018-07-05T09:11:49.093Z,85120
2018-07-05T09:12:51.580Z,88800
2018-07-05T09:13:55.756Z,87776
2018-07-05T09:15:00.064Z,90016
2018-07-05T09:16:05.044Z,94656
2018-07-05T09:17:10.021Z,97824
2018-07-05T09:18:14.399Z,100480
2018-07-05T09:19:16.897Z,99392
2018-07-05T09:20:20.744Z,94080
2018-07-05T09:21:24.576Z,92864
2018-07-05T09:22:29.094Z,93664
2018-07-05T09:23:34.451Z,92960
2018-07-05T09:24:39.925Z,96800
2018-07-05T09:25:43.196Z,100704
2018-07-05T09:26:46.994Z,101984
2018-07-05T09:27:51.831Z,101952
2018-07-05T09:28:55.057Z,98432
2018-07-05T09:29:59.220Z,94304
2018-07-05T09:31:04.548Z,94656
2018-07-05T09:32:10.730Z,96608
2018-07-05T09:33:16.081Z,92480
2018-07-05T09:34:19.127Z,96096
2018-07-05T09:35:21.573Z,98816
2018-07-05T09:36:24.112Z,95264
2018-07-05T09:37:26.988Z,94464
2018-07-05T09:38:30.371Z,99808
2018-07-05T09:39:33.572Z,112896
2018-07-05T09:40:36.513Z,112608
2018-07-05T09:41:39.938Z,98240
2018-07-05T09:42:42.549Z,97152
2018-07-05T09:43:44.870Z,103936
2018-07-05T09:44:48.053Z,105920
2018-07-05T09:45:50.899Z,104256
2018-07-05T09:46:53.772Z,108000
2018-07-05T09:47:56.706Z,118016
2018-07-05T09:48:59.830Z,112512
2018-07-05T09:50:03.592Z,106816
2018-07-05T09:51:06.863Z,116512
2018-07-05T09:52:10.102Z,113920
2018-07-05T09:53:13.547Z,100800
2018-07-05T09:54:15.864Z,100512
2018-07-05T09:55:18.379Z,115552
2018-07-05T09:56:22.547Z,120256
2018-07-05T09:57:25.062Z,117568
2018-07-05T09:58:27.933Z,118048
2018-07-05T09:59:31.214Z,115552
2018-07-05T10:00:36.607Z,117120
2018-07-05T10:01:41.180Z,121408
2018-07-05T10:02:43.727Z,118560
2018-07-05T10:03:46.202Z,114272
2018-07-05T10:04:49.086Z,112192
2018-07-05T10:05:51.548Z,117792
2018-07-05T10:06:54.273Z,121472
2018-07-05T10:07:58.425Z,118368
2018-07-05T10:09:01.144Z,108576
2018-07-05T10:10:03.851Z,107360
2018-07-05T10:11:08.152Z,124192
2018-07-05T10:12:10.807Z,130272
2018-07-05T10:13:13.931Z,125152
2018-07-05T10:14:18.066Z,125280
2018-07-05T10:15:20.887Z,123168
2018-07-05T10:16:24.945Z,114208
2018-07-05T10:17:29.283Z,110656
2018-07-05T10:18:32.870Z,116480
2018-07-05T10:19:37.076Z,119520
2018-07-05T10:20:41.748Z,115840
2018-07-05T10:21:44.896Z,116448
2018-07-05T10:22:48.189Z,125120
2018-07-05T10:23:51.321Z,127904
2018-07-05T10:24:53.836Z,120448
2018-07-05T10:25:57.654Z,118304
2018-07-05T10:27:01.163Z,125312
2018-07-05T10:28:05.057Z,121920
2018-07-05T10:29:07.816Z,117600
2018-07-05T10:30:12.634Z,119648
2018-07-05T10:31:16.616Z,116544
2018-07-05T10:32:21.190Z,114720
2018-07-05T10:33:24.239Z,120608
2018-07-05T10:34:27.314Z,116832
2018-07-05T10:35:30.394Z,107360
2018-07-05T10:36:34.646Z,108960
2018-07-05T10:37:37.729Z,118784
2018-07-05T10:38:40.595Z,117632
2018-07-05T10:39:42.812Z,117536
2018-07-05T10:40:44.898Z,119168
2018-07-05T10:41:47.960Z,118304
2018-07-05T10:42:51.092Z,117056
2018-07-05T10:43:54.468Z,116032
2018-07-05T10:44:59.030Z,119744
2018-07-05T10:46:02.893Z,121312
2018-07-05T10:47:05.070Z,118848
2018-07-05T10:48:07.160Z,122336
2018-07-05T10:49:09.650Z,125568
2018-07-05T10:50:13.851Z,123456
2018-07-05T10:51:18.199Z,117216
2018-07-05T10:52:20.248Z,117376
2018-07-05T10:53:22.397Z,120672
2018-07-05T10:54:24.453Z,121312
2018-07-05T10:55:27.473Z,122560
2018-07-05T10:56:30.605Z,121216
2018-07-05T10:57:33.321Z,116768
2018-07-05T10:58:35.390Z,116672
2018-07-05T10:59:37.863Z,116672
2018-07-05T11:00:39.921Z,125088
2018-07-05T11:01:42.030Z,130560
2018-07-05T11:02:44.098Z,125984
2018-07-05T11:03:46.538Z,123552
2018-07-05T11:04:48.592Z,126784
2018-07-05T11:05:51.344Z,123168
2018-07-05T11:06:53.400Z,119040
2018-07-05T11:07:55.465Z,118240
2018-07-05T11:08:58.088Z,122112
2018-07-05T11:10:00.774Z,129088
2018-07-05T11:11:03.806Z,132768
2018-07-05T11:12:06.152Z,132736
2018-07-05T11:13:08.218Z,129760
2018-07-05T11:14:10.270Z,124032
2018-07-05T11:15:13.006Z,121184
2018-07-05T11:16:15.061Z,123584
2018-07-05T11:17:17.118Z,125696
2018-07-05T11:18:19.892Z,126016
2018-07-05T11:19:22.045Z,134336
2018-07-05T11:20:25.084Z,143968
2018-07-05T11:21:27.140Z,142656
2018-07-05T11:22:29.198Z,142560
2018-07-05T11:23:31.273Z,145696
2018-07-05T11:24:33.619Z,141856
2018-07-05T11:25:35.680Z,135520
2018-07-05T11:26:37.731Z,131104
2018-07-05T11:27:39.795Z,137248
2018-07-05T11:28:41.916Z,144064
2018-07-05T11:29:44.074Z,137568
2018-07-05T11:30:46.129Z,136480
2018-07-05T11:31:48.470Z,143520
2018-07-05T11:32:50.810Z,139360
2018-07-05T11:33:52.873Z,134368
2018-07-05T11:34:54.928Z,142912
2018-07-05T11:35:56.988Z,145184
2018-07-05T11:36:59.097Z,133920
2018-07-05T11:38:01.175Z,128288
2018-07-05T11:39:03.524Z,132256
2018-07-05T11:40:05.584Z,139936
2018-07-05T11:41:07.936Z,148416
2018-07-05T11:42:10.277Z,153376
2018-07-05T11:43:12.364Z,145888
2018-07-05T11:44:14.420Z,133504
2018-07-05T11:45:16.546Z,73568
2018-07-05T11:46:18.677Z,126688
2018-07-05T11:47:20.748Z,116480
2018-07-05T11:48:23.231Z,111104
2018-07-05T11:49:25.331Z,110528
2018-07-05T11:50:27.382Z,112768
2018-07-05T11:51:29.834Z,115680
2018-07-05T11:52:31.895Z,110560
2018-07-05T11:53:34.244Z,102880
2018-07-05T11:54:36.297Z,110976
2018-07-05T11:55:38.360Z,125184
2018-07-05T11:56:40.690Z,130592
2018-07-05T11:57:43.045Z,127936
2018-07-05T11:58:45.237Z,119840
2018-07-05T11:59:47.182Z,116896
2018-07-05T12:00:49.257Z,123328
2018-07-05T12:01:51.375Z,128512
2018-07-05T12:02:53.814Z,122624
2018-07-05T12:03:57.373Z,117056
2018-07-05T12:04:59.724Z,111296
2018-07-05T12:06:01.798Z,112224
2018-07-05T12:07:03.855Z,127680
2018-07-05T12:08:05.917Z,136608
2018-07-05T12:09:07.983Z,132576
2018-07-05T12:10:10.035Z,123840
2018-07-05T12:11:12.416Z,120768
2018-07-05T12:12:14.477Z,122176
2018-07-05T12:13:16.812Z,123264
2018-07-05T12:14:18.882Z,119136
2018-07-05T12:15:21.265Z,118560
2018-07-05T12:16:23.329Z,109760
2018-07-05T12:17:25.392Z,99904
2018-07-05T12:18:27.781Z,97696
2018-07-05T12:19:30.158Z,59616
2018-07-05T12:20:32.209Z,112352
2018-07-05T12:21:34.264Z,123680
2018-07-05T12:22:36.329Z,116544
2018-07-05T12:23:39.265Z,108832
2018-07-05T12:24:46.029Z,113728
2018-07-05T12:25:49.140Z,121216
2018-07-05T12:26:51.193Z,118208
2018-07-05T12:27:53.266Z,110880
2018-07-05T12:28:55.322Z,106592
2018-07-05T12:29:57.958Z,104992
2018-07-05T12:31:00.031Z,109024
2018-07-05T12:32:02.380Z,114176
2018-07-05T12:33:04.776Z,116736
2018-07-05T12:34:06.859Z,113824
2018-07-05T12:35:09.577Z,112064
2018-07-05T12:36:11.644Z,112192
2018-07-05T12:37:13.698Z,115776
2018-07-05T12:38:16.553Z,115968
2018-07-05T12:39:19.440Z,117696
2018-07-05T12:40:21.459Z,117088
2018-07-05T12:41:23.504Z,116544
2018-07-05T12:42:25.847Z,114432
2018-07-05T12:43:27.916Z,117632
2018-07-05T12:44:29.974Z,113056
2018-07-05T12:45:32.033Z,100736
2018-07-05T12:46:34.104Z,101472
2018-07-05T12:47:36.441Z,108320
2018-07-05T12:48:38.500Z,112416
2018-07-05T12:49:40.559Z,114016
2018-07-05T12:50:42.619Z,115392
2018-07-05T12:51:44.832Z,113376
2018-07-05T12:52:48.242Z,114400
2018-07-05T12:53:51.587Z,115104
2018-07-05T12:54:54.170Z,117856
2018-07-05T12:55:58.299Z,119200
2018-07-05T12:57:01.737Z,118368
2018-07-05T12:58:04.308Z,107968
2018-07-05T12:59:08.757Z,106592
2018-07-05T13:00:13.713Z,104672
2018-07-05T13:01:15.781Z,106720
2018-07-05T13:02:17.834Z,110400
2018-07-05T13:03:19.928Z,112448
2018-07-05T13:04:23.317Z,121504
2018-07-05T13:05:27.517Z,55392
2018-07-05T13:06:29.572Z,107648
2018-07-05T13:07:31.916Z,103072
2018-07-05T13:08:33.993Z,99488
2018-07-05T13:09:36.055Z,101312
2018-07-05T13:10:38.131Z,102496
2018-07-05T13:11:40.688Z,98240
2018-07-05T13:12:44.016Z,95264
2018-07-05T13:13:48.447Z,97184
2018-07-05T13:14:50.793Z,93024
2018-07-05T13:15:53.265Z,98816
2018-07-05T13:16:57.560Z,112928
2018-07-05T13:18:00.623Z,117408
2018-07-05T13:19:03.578Z,109440
2018-07-05T13:20:07.225Z,99776
2018-07-05T13:21:10.222Z,103648
2018-07-05T13:22:12.282Z,93792
2018-07-05T13:23:14.348Z,100256
2018-07-05T13:24:16.513Z,103168
2018-07-05T13:25:19.243Z,97984
2018-07-05T13:26:21.301Z,100448
2018-07-05T13:27:23.375Z,99648
2018-07-05T13:28:25.439Z,96512
2018-07-05T13:29:28.214Z,97248
2018-07-05T13:30:32.874Z,96000
2018-07-05T13:31:36.394Z,93440
2018-07-05T13:32:41.870Z,92192
2018-07-05T13:33:45.842Z,92416
2018-07-05T13:34:48.073Z,99136
2018-07-05T13:35:50.211Z,109664
2018-07-05T13:36:52.692Z,119840
2018-07-05T13:37:55.033Z,117696
2018-07-05T13:38:57.132Z,114336
2018-07-05T13:39:59.946Z,114656
2018-07-05T13:41:02.003Z,106432
2018-07-05T13:42:04.460Z,108928
2018-07-05T13:43:06.971Z,111360
2018-07-05T13:44:09.136Z,107456
2018-07-05T13:45:11.644Z,102272
2018-07-05T13:46:14.617Z,99936
2018-07-05T13:47:17.283Z,103520
2018-07-05T13:48:21.675Z,104320
2018-07-05T13:49:23.749Z,99808
2018-07-05T13:50:26.090Z,98080
2018-07-05T13:51:28.156Z,99232
2018-07-05T13:52:30.205Z,94240
2018-07-05T13:53:32.267Z,93696